createdAt,value
2018-01-04T00:01:39.190Z,98519.83
2018-01-04T00:04:06.764Z,98540.55
2018-01-04T00:06:34.374Z,98535.22
2018-01-04T00:09:01.976Z,98536.20
2018-01-04T00:11:29.547Z,98550.20
2018-01-04T00:13:57.190Z,98548.67
2018-01-04T00:16:24.762Z,98544.23
2018-01-04T00:18:52.332Z,98535.63
2018-01-04T00:21:20.012Z,98552.23
2018-01-04T00:23:47.578Z,98554.42
2018-01-04T00:26:15.183Z,98554.75
2018-01-04T00:28:43.851Z,98575.56
2018-01-04T00:31:11.504Z,98564.73
2018-01-04T00:33:39.167Z,98573.66
2018-01-04T00:36:06.730Z,98570.48
2018-01-04T00:38:34.334Z,98581.02
2018-01-04T00:41:01.944Z,98576.42
2018-01-04T00:43:29.551Z,98586.70
2018-01-04T00:45:57.150Z,98590.06
2018-01-04T00:48:24.728Z,98587.30
2018-01-04T00:50:52.334Z,98588.95
2018-01-04T00:53:19.903Z,98584.67
2018-01-04T00:55:47.507Z,98592.13
2018-01-04T00:58:15.077Z,98608.25
2018-01-04T01:00:42.681Z,98604.09
2018-01-04T01:03:10.249Z,98598.95
2018-01-04T01:05:37.910Z,98599.20
2018-01-04T01:08:05.480Z,98602.80
2018-01-04T01:10:33.095Z,98614.09
2018-01-04T01:13:00.663Z,98606.63
2018-01-04T01:15:28.542Z,98610.97
2018-01-04T01:17:56.103Z,98612.72
2018-01-04T01:20:23.662Z,98621.95
2018-01-04T01:22:51.226Z,98630.88
2018-01-04T01:25:18.912Z,98611.75
2018-01-04T01:27:46.483Z,98619.59
2018-01-04T01:30:14.100Z,98638.13
2018-01-04T01:32:41.666Z,98637.46
2018-01-04T01:35:09.255Z,98632.16
2018-01-04T01:37:36.831Z,98628.64
2018-01-04T01:40:04.390Z,98640.32
2018-01-04T01:42:32.000Z,98625.14
2018-01-04T01:44:59.600Z,98648.00
2018-01-04T01:47:27.264Z,98628.00
2018-01-04T01:49:54.834Z,98649.09
2018-01-04T01:52:22.399Z,98650.35
2018-01-04T01:54:50.044Z,98650.32
2018-01-04T01:57:17.687Z,98649.77
2018-01-04T01:59:45.257Z,98667.37
2018-01-04T02:02:12.823Z,98659.97
2018-01-04T02:04:40.400Z,98663.17
2018-01-04T02:07:07.967Z,98647.58
2018-01-04T02:09:35.535Z,98677.28
2018-01-04T02:12:03.107Z,98662.38
2018-01-04T02:14:30.683Z,98661.65
2018-01-04T02:16:58.303Z,98656.80
2018-01-04T02:19:37.859Z,98660.62
2018-01-04T02:22:17.462Z,98668.02
2018-01-04T02:24:56.947Z,98665.22
2018-01-04T02:27:36.511Z,98668.84
2018-01-04T02:30:15.920Z,98666.00
2018-01-04T02:32:55.363Z,98668.22
2018-01-04T02:35:35.738Z,98682.83
2018-01-04T02:38:16.165Z,98678.70
2018-01-04T02:40:55.679Z,98671.41
2018-01-04T02:43:35.210Z,98680.00
2018-01-04T02:46:08.667Z,98682.34
2018-01-04T02:48:36.239Z,98673.99
2018-01-04T02:51:03.808Z,98694.69
2018-01-04T02:53:31.619Z,98692.08
2018-01-04T02:55:59.315Z,98707.44
2018-01-04T02:58:26.923Z,98709.89
2018-01-04T03:00:54.500Z,98721.92
2018-01-04T03:03:22.065Z,98719.62
2018-01-04T03:05:49.634Z,98725.09
2018-01-04T03:08:17.255Z,98721.09
2018-01-04T03:10:44.814Z,98733.45
2018-01-04T03:13:12.419Z,98742.19
2018-01-04T03:15:40.011Z,98732.98
2018-01-04T03:18:07.617Z,98755.34
2018-01-04T03:20:35.306Z,98753.70
2018-01-04T03:23:08.626Z,98748.30
2018-01-04T03:25:41.686Z,98744.58
2018-01-04T03:28:14.959Z,98743.49
2018-01-04T03:30:48.496Z,98747.28
2018-01-04T03:33:21.734Z,98756.91
2018-01-04T03:35:54.998Z,98756.28
2018-01-04T03:38:28.178Z,98769.22
2018-01-04T03:41:01.463Z,98776.83
2018-01-04T03:43:34.741Z,98764.78
2018-01-04T03:46:08.144Z,98776.08
2018-01-04T03:48:41.350Z,98773.84
2018-01-04T03:51:14.635Z,98774.78
2018-01-04T03:53:47.964Z,98773.98
2018-01-04T03:56:21.146Z,98773.84
2018-01-04T03:58:54.334Z,98769.73
2018-01-04T04:01:27.539Z,98779.88
2018-01-04T04:03:55.207Z,98778.30
2018-01-04T04:06:28.497Z,98784.87
2018-01-04T04:08:56.162Z,98795.89
2018-01-04T04:11:23.740Z,98785.97
2018-01-04T04:13:51.306Z,98799.80
2018-01-04T04:16:18.870Z,98793.20
2018-01-04T04:18:46.479Z,98799.23
2018-01-04T04:21:14.054Z,98818.99
2018-01-04T04:23:41.734Z,98819.83
2018-01-04T04:26:09.295Z,98820.72
2018-01-04T04:28:36.906Z,98825.66
2018-01-04T04:31:04.471Z,98822.95
2018-01-04T04:33:32.070Z,98839.72
2018-01-04T04:35:59.647Z,98842.63
2018-01-04T04:38:27.254Z,98838.25
2018-01-04T04:40:54.858Z,98843.16
2018-01-04T04:43:22.473Z,98850.69
2018-01-04T04:45:50.093Z,98858.48
2018-01-04T04:48:17.750Z,98852.05
2018-01-04T04:50:45.409Z,98858.17
2018-01-04T04:53:12.983Z,98861.85
2018-01-04T04:55:40.546Z,98858.16
2018-01-04T04:58:08.108Z,98862.59
2018-01-04T05:00:35.672Z,98868.20
2018-01-04T05:03:03.260Z,98874.91
2018-01-04T05:05:30.875Z,98865.34
2018-01-04T05:07:58.467Z,98869.98
2018-01-04T05:10:26.031Z,98882.56
2018-01-04T05:12:53.605Z,98883.07
2018-01-04T05:15:21.184Z,98872.46
2018-01-04T05:17:48.782Z,98884.06
2018-01-04T05:20:16.348Z,98891.80
2018-01-04T05:22:43.915Z,98886.33
2018-01-04T05:25:11.479Z,98898.80
2018-01-04T05:27:39.124Z,98897.41
2018-01-04T05:30:06.782Z,98896.91
2018-01-04T05:32:34.350Z,98899.95
2018-01-04T05:35:01.914Z,98904.53
2018-01-04T05:37:29.494Z,98906.87
2018-01-04T05:39:57.062Z,98907.34
2018-01-04T05:42:24.695Z,98898.99
2018-01-04T05:44:52.282Z,98908.38
2018-01-04T05:47:19.854Z,98916.58
2018-01-04T05:49:47.423Z,98909.77
2018-01-04T05:52:14.987Z,98910.48
2018-01-04T05:54:42.558Z,98916.16
2018-01-04T05:57:10.130Z,98922.25
2018-01-04T05:59:37.690Z,98923.20
2018-01-04T06:02:05.252Z,98927.80
2018-01-04T06:04:32.821Z,98916.03
2018-01-04T06:07:00.411Z,98923.64
2018-01-04T06:09:27.979Z,98935.55
2018-01-04T06:11:55.591Z,98935.13
2018-01-04T06:14:23.156Z,98933.84
2018-01-04T06:16:50.755Z,98940.95
2018-01-04T06:19:18.327Z,98935.63
2018-01-04T06:21:45.981Z,98932.95
2018-01-04T06:24:13.586Z,98943.75
2018-01-04T06:26:41.201Z,98942.95
2018-01-04T06:29:08.858Z,98943.28
2018-01-04T06:31:36.456Z,98931.03
2018-01-04T06:34:04.091Z,98946.22
2018-01-04T06:36:31.659Z,98945.80
2018-01-04T06:38:59.234Z,98959.63
2018-01-04T06:41:26.886Z,98970.85
2018-01-04T06:43:54.460Z,98966.31
2018-01-04T06:46:22.026Z,98958.56
2018-01-04T06:48:49.623Z,98954.47
2018-01-04T06:51:17.187Z,98960.85
2018-01-04T06:53:44.795Z,98955.77
2018-01-04T06:56:12.447Z,98959.07
2018-01-04T06:58:40.021Z,98974.88
2018-01-04T07:01:07.591Z,98967.94
2018-01-04T07:03:35.159Z,98978.73
2018-01-04T07:06:02.795Z,98974.89
2018-01-04T07:08:30.359Z,98979.39
2018-01-04T07:10:57.922Z,98984.38
2018-01-04T07:13:25.482Z,98989.14
2018-01-04T07:15:53.043Z,98990.02
2018-01-04T07:18:20.645Z,98989.51
2018-01-04T07:20:48.259Z,98994.80
2018-01-04T07:23:15.919Z,99002.66
2018-01-04T07:25:43.592Z,99006.09
2018-01-04T07:28:11.164Z,99018.75
2018-01-04T07:30:38.759Z,99002.80
2018-01-04T07:33:06.366Z,99013.89
2018-01-04T07:35:33.967Z,99014.06
2018-01-04T07:38:01.594Z,99021.83
2018-01-04T07:40:29.310Z,99017.79
2018-01-04T07:42:56.918Z,99018.37
2018-01-04T07:45:24.502Z,99013.09
2018-01-04T07:47:52.175Z,99023.20
2018-01-04T07:50:19.747Z,99028.94
2018-01-04T07:52:47.313Z,99029.40
2018-01-04T07:55:14.882Z,99036.08
2018-01-04T07:57:42.446Z,99037.77
2018-01-04T08:00:10.061Z,99038.35
2018-01-04T08:02:37.669Z,99047.39
2018-01-04T08:05:05.235Z,99046.39
2018-01-04T08:07:32.799Z,99055.76
2018-01-04T08:10:00.370Z,99056.17
2018-01-04T08:12:27.939Z,99055.15
2018-01-04T08:14:55.547Z,99054.02
2018-01-04T08:17:24.012Z,99054.45
2018-01-04T08:19:51.660Z,99058.64
2018-01-04T08:22:19.236Z,99053.95
2018-01-04T08:24:46.804Z,99057.19
2018-01-04T08:27:14.362Z,99070.28
2018-01-04T08:29:41.955Z,99069.81
2018-01-04T08:32:09.524Z,99071.66
2018-01-04T08:34:37.087Z,99082.44
2018-01-04T08:37:04.661Z,99079.75
2018-01-04T08:39:32.251Z,99086.88
2018-01-04T08:41:59.827Z,99084.75
2018-01-04T08:44:27.474Z,99084.27
2018-01-04T08:46:55.048Z,99087.06
2018-01-04T08:49:22.870Z,99088.98
2018-01-04T08:51:50.435Z,99093.28
2018-01-04T08:54:18.004Z,99085.97
2018-01-04T08:56:45.576Z,99097.62
2018-01-04T08:59:13.980Z,99095.63
2018-01-04T09:01:41.547Z,99095.88
2018-01-04T09:04:09.111Z,99111.56
2018-01-04T09:06:36.680Z,99104.95
2018-01-04T09:09:04.260Z,99108.70
2018-01-04T09:11:31.875Z,99104.13
2018-01-04T09:13:59.451Z,99106.19
2018-01-04T09:16:27.028Z,99110.09
2018-01-04T09:18:55.485Z,99106.80
2018-01-04T09:21:23.147Z,99115.49
2018-01-04T09:23:50.722Z,99107.91
2018-01-04T09:26:18.326Z,99109.86
2018-01-04T09:28:45.939Z,99109.13
2018-01-04T09:31:13.628Z,99108.16
2018-01-04T09:33:41.253Z,99112.41
2018-01-04T09:36:08.818Z,99109.77
2018-01-04T09:38:36.483Z,99117.81
2018-01-04T09:41:04.049Z,99110.92
2018-01-04T09:43:31.619Z,99117.03
2018-01-04T09:45:59.187Z,99116.74
2018-01-04T09:48:26.755Z,99125.17
2018-01-04T09:50:54.328Z,99123.92
2018-01-04T09:53:21.907Z,99126.48
2018-01-04T09:55:49.508Z,99124.58
2018-01-04T09:58:17.111Z,99125.12
2018-01-04T10:00:44.693Z,99123.15
2018-01-04T10:03:12.306Z,99125.13
2018-01-04T10:05:39.947Z,99133.42
2018-01-04T10:08:07.503Z,99138.23
2018-01-04T10:10:35.073Z,99135.53
2018-01-04T10:13:02.647Z,99137.40
2018-01-04T10:15:30.223Z,99135.53
2018-01-04T10:17:57.792Z,99133.91
2018-01-04T10:20:25.391Z,99126.44
2018-01-04T10:22:52.964Z,99122.11
2018-01-04T10:25:20.603Z,99127.13
2018-01-04T10:27:48.178Z,99120.21
2018-01-04T10:30:16.595Z,99120.06
2018-01-04T10:32:44.163Z,99126.73
2018-01-04T10:35:11.734Z,99125.41
2018-01-04T10:37:39.335Z,99114.72
2018-01-04T10:40:06.945Z,99114.88
2018-01-04T10:42:34.567Z,99111.19
2018-01-04T10:45:02.176Z,99120.22
2018-01-04T10:47:29.754Z,99117.83
2018-01-04T10:49:57.379Z,99124.89
2018-01-04T10:52:24.964Z,99123.39
2018-01-04T10:54:52.715Z,99114.95
2018-01-04T10:57:20.348Z,99118.16
2018-01-04T10:59:47.923Z,99128.25
2018-01-04T11:02:15.495Z,99119.34
2018-01-04T11:04:43.080Z,99110.07
2018-01-04T11:07:10.820Z,99114.60
2018-01-04T11:09:38.416Z,99114.40
2018-01-04T11:12:05.988Z,99110.75
2018-01-04T11:14:33.571Z,99106.79
2018-01-04T11:17:01.157Z,99122.21
2018-01-04T11:19:28.831Z,99113.50
2018-01-04T11:21:56.654Z,99109.69
2018-01-04T11:24:24.229Z,99117.53
2018-01-04T11:26:51.843Z,99118.81
2018-01-04T11:29:19.442Z,99116.52
2018-01-04T11:31:47.055Z,99116.78
2018-01-04T11:34:14.786Z,99115.16
2018-01-04T11:36:42.354Z,99107.87
2018-01-04T11:39:09.970Z,99107.95
2018-01-04T11:41:37.540Z,99108.17
2018-01-04T11:44:05.164Z,99120.63
2018-01-04T11:46:32.744Z,99120.11
2018-01-04T11:49:00.333Z,99124.34
2018-01-04T11:51:27.907Z,99126.41
2018-01-04T11:53:55.479Z,99127.75
2018-01-04T11:56:23.056Z,99122.21
2018-01-04T11:58:50.643Z,99116.59
2018-01-04T12:01:18.216Z,99128.42
2018-01-04T12:03:45.792Z,99117.45
2018-01-04T12:06:13.366Z,99116.73
2018-01-04T12:08:40.938Z,99110.22
2018-01-04T12:11:08.505Z,99112.28
2018-01-04T12:13:36.112Z,99114.89
2018-01-04T12:16:03.754Z,99118.70
2018-01-04T12:18:31.449Z,99111.98
2018-01-04T12:20:59.056Z,99124.70
2018-01-04T12:23:26.631Z,99114.04
2018-01-04T12:25:54.289Z,99107.47
2018-01-04T12:28:21.872Z,99114.04
2018-01-04T12:30:49.458Z,99101.01
2018-01-04T12:33:17.032Z,99110.16
2018-01-04T12:35:44.607Z,99104.47
2018-01-04T12:38:12.180Z,99106.78
2018-01-04T12:40:39.771Z,99098.77
2018-01-04T12:43:07.348Z,99110.02
2018-01-04T12:48:46.801Z,99099.13
2018-01-04T12:51:14.407Z,99097.05
2018-01-04T12:53:41.988Z,99110.96
2018-01-04T12:56:09.563Z,99100.48
2018-01-04T12:58:37.157Z,99094.86
2018-01-04T13:01:04.766Z,99097.31
2018-01-04T13:03:32.343Z,99098.55
2018-01-04T13:05:59.972Z,99103.41
2018-01-04T13:08:27.638Z,99091.98
2018-01-04T13:10:55.248Z,99102.41
2018-01-04T13:13:22.816Z,99105.28
2018-01-04T13:15:50.391Z,99095.95
2018-01-04T13:18:18.087Z,99103.41
2018-01-04T13:20:45.675Z,99097.88
2018-01-04T13:23:13.252Z,99108.09
2018-01-04T13:25:40.829Z,99104.38
2018-01-04T13:28:08.450Z,99101.98
2018-01-04T13:30:36.021Z,99101.05
2018-01-04T13:33:03.659Z,99096.52
2018-01-04T13:35:31.296Z,99094.17
2018-01-04T13:37:58.873Z,99102.75
2018-01-04T13:40:26.443Z,99101.92
2018-01-04T13:42:54.027Z,99104.88
2018-01-04T13:45:21.651Z,99100.90
2018-01-04T13:47:49.227Z,99099.38
2018-01-04T13:50:16.988Z,99103.97
2018-01-04T13:52:44.601Z,99089.23
2018-01-04T13:55:12.245Z,99093.56
2018-01-04T13:57:39.872Z,99096.48
2018-01-04T14:00:07.568Z,99092.52
2018-01-04T14:02:35.204Z,99087.73
2018-01-04T14:05:02.783Z,99093.48
2018-01-04T14:07:30.474Z,99084.37
2018-01-04T14:09:58.050Z,99080.75
2018-01-04T14:12:25.626Z,99080.34
2018-01-04T14:14:53.304Z,99085.33
2018-01-04T14:17:20.988Z,99081.84
2018-01-04T14:19:48.641Z,99086.70
2018-01-04T14:22:16.256Z,99083.35
2018-01-04T14:24:43.831Z,99085.89
2018-01-04T14:27:11.531Z,99082.11
2018-01-04T14:29:39.187Z,99085.13
2018-01-04T14:32:06.763Z,99081.91
2018-01-04T14:34:34.412Z,99079.09
2018-01-04T14:37:02.021Z,99070.13
2018-01-04T14:39:29.683Z,99080.59
2018-01-04T14:41:57.294Z,99080.69
2018-01-04T14:44:24.958Z,99082.39
2018-01-04T14:46:52.558Z,99077.77
2018-01-04T14:49:20.188Z,99081.16
2018-01-04T14:51:47.766Z,99077.59
2018-01-04T14:54:15.408Z,99081.28
2018-01-04T14:56:43.036Z,99082.69
2018-01-04T14:59:10.731Z,99086.19
2018-01-04T15:01:38.304Z,99092.19
2018-01-04T15:04:05.920Z,99094.22
2018-01-04T15:06:33.524Z,99096.58
2018-01-04T15:09:01.095Z,99096.70
2018-01-04T15:11:28.676Z,99090.81
2018-01-04T15:13:56.276Z,99087.19
2018-01-04T15:16:23.858Z,99093.50
2018-01-04T15:18:51.483Z,99092.05
2018-01-04T15:21:19.238Z,99088.98
2018-01-04T15:23:46.933Z,99088.89
2018-01-04T15:26:14.646Z,99080.75
2018-01-04T15:28:42.227Z,99079.28
2018-01-04T15:31:09.835Z,99084.64
2018-01-04T15:33:37.452Z,99078.48
2018-01-04T15:36:05.073Z,99075.20
2018-01-04T15:38:32.648Z,99074.20
2018-01-04T15:41:00.228Z,99071.87
2018-01-04T15:43:27.803Z,99073.47
2018-01-04T15:45:55.371Z,99077.63
2018-01-04T15:48:22.951Z,99070.07
2018-01-04T15:50:50.522Z,99076.94
2018-01-04T15:53:18.100Z,99071.52
2018-01-04T15:55:45.845Z,99071.44
2018-01-04T15:58:13.471Z,99066.41
2018-01-04T16:00:41.040Z,99054.94
2018-01-04T16:03:08.607Z,99056.49
2018-01-04T16:05:36.180Z,99055.44
2018-01-04T16:08:03.805Z,99049.17
2018-01-04T16:10:31.384Z,99041.95
2018-01-04T16:12:59.083Z,99040.94
2018-01-04T16:15:26.746Z,99045.88
2018-01-04T16:17:54.325Z,99039.72
2018-01-04T16:20:21.903Z,99037.42
2018-01-04T16:22:49.496Z,99029.14
2018-01-04T16:25:17.070Z,99026.20
2018-01-04T16:27:44.687Z,99024.47
2018-01-04T16:30:12.302Z,99022.80
2018-01-04T16:32:39.869Z,99015.80
2018-01-04T16:35:07.443Z,99017.27
2018-01-04T16:37:35.019Z,99015.86
2018-01-04T16:40:02.596Z,99012.58
2018-01-04T16:42:30.173Z,99016.69
2018-01-04T16:44:57.747Z,99012.88
2018-01-04T16:47:25.363Z,99009.11
2018-01-04T16:49:53.006Z,99008.63
2018-01-04T16:52:20.632Z,99004.84
2018-01-04T16:54:48.204Z,99003.50
2018-01-04T16:57:15.842Z,99001.91
2018-01-04T16:59:43.411Z,98994.25
2018-01-04T17:02:10.982Z,98987.78
2018-01-04T17:04:38.674Z,98985.22
2018-01-04T17:07:06.250Z,98978.31
2018-01-04T17:09:33.883Z,98978.02
2018-01-04T17:12:01.455Z,98975.36
2018-01-04T17:14:29.071Z,98982.11
2018-01-04T17:16:56.782Z,98974.45
2018-01-04T17:19:24.456Z,98972.93
2018-01-04T17:21:52.075Z,98967.05
2018-01-04T17:24:19.826Z,98971.57
2018-01-04T17:26:47.476Z,98968.43
2018-01-04T17:29:15.049Z,98968.78
2018-01-04T17:31:42.727Z,98966.11
2018-01-04T17:34:10.326Z,98963.20
2018-01-04T17:36:37.980Z,98954.29
2018-01-04T17:39:05.560Z,98954.76
2018-01-04T17:41:33.136Z,98951.56
2018-01-04T17:44:00.740Z,98950.06
2018-01-04T17:46:28.360Z,98949.93
2018-01-04T17:48:55.919Z,98953.05
2018-01-04T17:51:23.486Z,98947.94
2018-01-04T17:53:51.166Z,98946.97
2018-01-04T17:56:18.739Z,98943.58
2018-01-04T17:58:46.378Z,98942.20
2018-01-04T18:01:14.007Z,98940.76
2018-01-04T18:03:41.620Z,98937.53
2018-01-04T18:06:09.322Z,98935.86
2018-01-04T18:08:36.911Z,98936.91
2018-01-04T18:11:04.490Z,98934.39
2018-01-04T18:13:32.108Z,98927.27
2018-01-04T18:15:59.686Z,98927.44
2018-01-04T18:18:27.335Z,98924.38
2018-01-04T18:20:54.998Z,98920.09
2018-01-04T18:23:22.620Z,98918.50
2018-01-04T18:25:50.194Z,98917.82
2018-01-04T18:28:17.894Z,98924.03
2018-01-04T18:30:45.510Z,98923.16
2018-01-04T18:33:13.116Z,98919.40
2018-01-04T18:35:40.761Z,98921.45
2018-01-04T18:38:08.442Z,98912.55
2018-01-04T18:40:36.107Z,98911.37
2018-01-04T18:43:03.683Z,98904.27
2018-01-04T18:45:31.476Z,98902.85
2018-01-04T18:47:59.048Z,98901.34
2018-01-04T18:50:26.627Z,98905.98
2018-01-04T18:52:54.313Z,98900.23
2018-01-04T18:55:21.899Z,98899.41
2018-01-04T18:57:49.541Z,98889.92
2018-01-04T19:00:17.114Z,98890.41
2018-01-04T19:02:44.758Z,98881.79
2018-01-04T19:05:12.342Z,98879.42
2018-01-04T19:07:39.983Z,98876.06
2018-01-04T19:10:07.592Z,98880.91
2018-01-04T19:12:35.308Z,98875.80
2018-01-04T19:15:02.886Z,98878.02
2018-01-04T19:17:30.461Z,98874.42
2018-01-04T19:19:58.144Z,98862.27
2018-01-04T19:22:26.116Z,98862.04
2018-01-04T19:24:53.724Z,98854.46
2018-01-04T19:27:21.384Z,98858.64
2018-01-04T19:29:48.972Z,98854.63
2018-01-04T19:32:16.553Z,98855.17
2018-01-04T19:34:44.204Z,98855.02
2018-01-04T19:37:11.828Z,98851.42
2018-01-04T19:39:39.402Z,98853.45
2018-01-04T19:42:07.001Z,98845.61
2018-01-04T19:44:34.587Z,98844.51
2018-01-04T19:47:02.181Z,98837.83
2018-01-04T19:49:29.817Z,98833.09
2018-01-04T19:51:57.419Z,98828.11
2018-01-04T19:54:25.098Z,98822.90
2018-01-04T19:56:52.683Z,98817.36
2018-01-04T19:59:20.290Z,98808.34
2018-01-04T20:01:47.876Z,98802.95
2018-01-04T20:04:15.561Z,98799.94
2018-01-04T20:06:43.160Z,98801.07
2018-01-04T20:09:10.740Z,98800.48
2018-01-04T20:11:38.434Z,98793.79
2018-01-04T20:14:06.007Z,98783.23
2018-01-04T20:16:33.673Z,98779.42
2018-01-04T20:19:01.250Z,98784.18
2018-01-04T20:21:28.835Z,98766.91
2018-01-04T20:23:56.543Z,98776.73
2018-01-04T20:26:24.124Z,98762.34
2018-01-04T20:28:51.785Z,98763.54
2018-01-04T20:31:19.499Z,98754.52
2018-01-04T20:33:47.168Z,98742.56
2018-01-04T20:36:14.754Z,98744.42
2018-01-04T20:38:42.390Z,98743.34
2018-01-04T20:41:09.999Z,98738.14
2018-01-04T20:43:37.614Z,98739.44
2018-01-04T20:46:05.214Z,98730.62
2018-01-04T20:48:33.755Z,98714.69
2018-01-04T20:51:01.465Z,98708.54
2018-01-04T20:53:29.062Z,98706.68
2018-01-04T20:55:56.655Z,98696.97
2018-01-04T20:58:24.271Z,98697.17
2018-01-04T21:00:51.934Z,98700.95
2018-01-04T21:03:19.631Z,98686.94
2018-01-04T21:05:47.212Z,98687.41
2018-01-04T21:08:14.805Z,98678.78
2018-01-04T21:10:42.418Z,98680.03
2018-01-04T21:13:10.330Z,98671.41
2018-01-04T21:15:37.951Z,98663.30
2018-01-04T21:18:05.524Z,98663.77
2018-01-04T21:20:33.103Z,98655.03
2018-01-04T21:23:00.676Z,98652.64
2018-01-04T21:25:28.248Z,98646.36
2018-01-04T21:27:55.826Z,98637.95
2018-01-04T21:30:23.403Z,98639.59
2018-01-04T21:32:51.074Z,98636.77
2018-01-04T21:35:18.736Z,98635.35
2018-01-04T21:37:46.310Z,98617.44
2018-01-04T21:40:13.950Z,98615.41
2018-01-04T21:42:42.506Z,98619.36
2018-01-04T21:45:10.110Z,98624.14
2018-01-04T21:47:37.820Z,98611.98
2018-01-04T21:50:05.376Z,98589.30
2018-01-04T21:52:32.952Z,98571.80
2018-01-04T21:55:00.523Z,98569.09
2018-01-04T21:57:28.154Z,98578.08
2018-01-04T21:59:55.771Z,98592.92
2018-01-04T22:02:23.347Z,98601.91
2018-01-04T22:04:50.972Z,98605.02
2018-01-04T22:07:18.592Z,98608.14
2018-01-04T22:09:46.170Z,98612.86
2018-01-04T22:12:13.750Z,98607.78
2018-01-04T22:14:41.360Z,98606.63
2018-01-04T22:17:08.930Z,98592.91
2018-01-04T22:19:36.614Z,98588.66
2018-01-04T22:22:04.228Z,98580.67
2018-01-04T22:24:31.920Z,98581.63
2018-01-04T22:26:59.503Z,98574.33
2018-01-04T22:29:27.147Z,98563.33
2018-01-04T22:31:54.735Z,98571.53
2018-01-04T22:34:22.388Z,98574.34
2018-01-04T22:36:49.958Z,98577.40
2018-01-04T22:39:17.534Z,98569.41
2018-01-04T22:41:45.116Z,98566.75
2018-01-04T22:44:12.692Z,98570.80
2018-01-04T22:46:40.270Z,98579.98
2018-01-04T22:49:07.857Z,98571.47
2018-01-04T22:51:35.476Z,98576.15
2018-01-04T22:54:03.059Z,98568.77
2018-01-04T22:56:31.507Z,98563.16
2018-01-04T22:58:59.071Z,98562.28
2018-01-04T23:01:26.647Z,98555.17
2018-01-04T23:03:54.223Z,98557.28
2018-01-04T23:06:21.855Z,98554.00
2018-01-04T23:08:49.428Z,98555.91
2018-01-04T23:11:17.052Z,98557.42
2018-01-04T23:13:44.748Z,98568.30
2018-01-04T23:16:12.326Z,98568.37
2018-01-04T23:18:40.009Z,98571.44
2018-01-04T23:21:07.635Z,98576.34
2018-01-04T23:23:36.213Z,98571.97
2018-01-04T23:26:03.826Z,98580.41
2018-01-04T23:28:31.400Z,98576.78
2018-01-04T23:30:58.991Z,98577.92
2018-01-04T23:33:26.660Z,98567.64
2018-01-04T23:35:54.232Z,98566.81
2018-01-04T23:38:21.882Z,98561.05
2018-01-04T23:40:49.540Z,98560.25
2018-01-04T23:43:17.119Z,98567.23
2018-01-04T23:45:44.700Z,98567.30
2018-01-04T23:48:12.270Z,98564.42
2018-01-04T23:50:39.992Z,98567.54
2018-01-04T23:53:07.576Z,98561.25
2018-01-04T23:55:35.220Z,98569.02
2018-01-04T23:58:02.797Z,98584.40
